createdAt,value
2019-05-26T00:00:53.311Z,18.99
2019-05-26T00:01:51.783Z,18.99
2019-05-26T00:02:51.354Z,18.92
2019-05-26T00:03:49.838Z,18.85
2019-05-26T00:04:48.453Z,18.81
2019-05-26T00:05:47.108Z,18.75
2019-05-26T00:06:45.681Z,18.73
2019-05-26T00:07:44.196Z,18.69
2019-05-26T00:08:42.856Z,18.73
2019-05-26T00:09:41.458Z,18.72
2019-05-26T00:10:40.000Z,18.72
2019-05-26T00:11:38.639Z,18.63
2019-05-26T00:12:37.442Z,18.65
2019-05-26T00:13:36.067Z,18.63
2019-05-26T00:14:34.807Z,18.47
2019-05-26T00:15:33.433Z,18.36
2019-05-26T00:16:31.991Z,18.41
2019-05-26T00:17:30.689Z,18.44
2019-05-26T00:18:33.006Z,18.51
2019-05-26T00:19:27.883Z,18.48
2019-05-26T00:20:26.661Z,18.57
2019-05-26T00:21:25.362Z,18.5
2019-05-26T00:22:23.921Z,18.44
2019-05-26T00:23:22.569Z,18.37
2019-05-26T00:24:21.055Z,18.44
2019-05-26T00:25:19.718Z,18.62
2019-05-26T00:26:18.297Z,18.47
2019-05-26T00:27:17.118Z,18.44
2019-05-26T00:28:15.744Z,18.54
2019-05-26T00:29:14.284Z,18.54
2019-05-26T00:30:13.054Z,18.52
2019-05-26T00:31:11.628Z,18.44
2019-05-26T00:32:10.156Z,18.42
2019-05-26T00:33:08.846Z,18.45
2019-05-26T00:34:07.397Z,18.42
2019-05-26T00:35:05.929Z,18.42
2019-05-26T00:36:04.556Z,18.36
2019-05-26T00:37:03.209Z,18.42
2019-05-26T00:38:01.784Z,18.33
2019-05-26T00:39:00.550Z,18.33
2019-05-26T00:39:59.175Z,18.33
2019-05-26T00:40:57.780Z,18.29
2019-05-26T00:41:56.387Z,18.3
2019-05-26T00:42:55.086Z,18.35
2019-05-26T00:43:53.697Z,18.32
2019-05-26T00:44:52.341Z,18.37
2019-05-26T00:45:51.010Z,18.3
2019-05-26T00:46:49.620Z,18.3
2019-05-26T00:47:48.150Z,18.27
2019-05-26T00:48:46.820Z,18.33
2019-05-26T00:49:45.350Z,18.08
2019-05-26T00:50:43.952Z,18.1
2019-05-26T00:51:42.707Z,17.99
2019-05-26T00:52:41.264Z,18.03
2019-05-26T00:53:39.812Z,18.03
2019-05-26T00:54:38.624Z,18.03
2019-05-26T00:55:37.204Z,17.96
2019-05-26T00:56:35.766Z,17.93
2019-05-26T00:57:34.339Z,18.11
2019-05-26T00:58:33.089Z,18.07
2019-05-26T00:59:31.630Z,17.99
2019-05-26T01:00:30.206Z,18.07
2019-05-26T01:01:28.851Z,18.03
2019-05-26T01:02:27.586Z,18.05
2019-05-26T01:03:26.180Z,17.78
2019-05-26T01:04:24.842Z,17.71
2019-05-26T01:05:24.117Z,17.71
2019-05-26T01:06:22.870Z,17.87
2019-05-26T01:07:21.451Z,17.74
2019-05-26T01:08:20.044Z,17.78
2019-05-26T01:09:18.633Z,17.77
2019-05-26T01:10:17.296Z,17.84
2019-05-26T01:11:15.848Z,17.74
2019-05-26T01:12:14.483Z,17.77
2019-05-26T01:13:13.298Z,17.86
2019-05-26T01:14:11.874Z,17.93
2019-05-26T01:15:10.555Z,17.81
2019-05-26T01:16:09.202Z,17.78
2019-05-26T01:17:07.746Z,17.68
2019-05-26T01:18:06.596Z,17.77
2019-05-26T01:19:05.352Z,17.78
2019-05-26T01:20:03.851Z,17.77
2019-05-26T01:21:02.434Z,17.75
2019-05-26T01:22:01.103Z,17.84
2019-05-26T01:22:59.708Z,17.78
2019-05-26T01:23:58.285Z,17.75
2019-05-26T01:24:56.855Z,17.55
2019-05-26T01:25:55.432Z,17.62
2019-05-26T01:26:54.005Z,17.64
2019-05-26T01:27:53.127Z,17.63
2019-05-26T01:28:51.656Z,17.55
2019-05-26T01:29:50.188Z,17.54
2019-05-26T01:30:48.864Z,17.66
2019-05-26T01:31:47.450Z,17.55
2019-05-26T01:32:46.063Z,17.58
2019-05-26T01:33:44.607Z,17.46
2019-05-26T01:34:43.299Z,17.44
2019-05-26T01:35:41.862Z,17.41
2019-05-26T01:36:40.421Z,17.44
2019-05-26T01:37:39.255Z,17.33
2019-05-26T01:38:37.822Z,17.33
2019-05-26T01:39:36.461Z,17.33
2019-05-26T01:40:35.120Z,17.46
2019-05-26T01:41:33.731Z,17.44
2019-05-26T01:42:32.336Z,17.58
2019-05-26T01:43:31.033Z,17.48
2019-05-26T01:44:29.685Z,17.48
2019-05-26T01:45:28.223Z,17.44
2019-05-26T01:46:26.955Z,17.44
2019-05-26T01:47:25.530Z,17.43
2019-05-26T01:48:24.095Z,17.46
2019-05-26T01:50:23.755Z,17.46
2019-05-26T01:51:22.283Z,17.51
2019-05-26T01:52:21.044Z,17.48
2019-05-26T01:53:19.730Z,17.43
2019-05-26T01:54:18.271Z,17.38
2019-05-26T01:55:16.839Z,17.26
2019-05-26T01:56:15.441Z,17.36
2019-05-26T01:57:13.990Z,17.21
2019-05-26T01:58:12.855Z,17.19
2019-05-26T01:59:12.159Z,17.23
2019-05-26T02:00:10.677Z,17.19
2019-05-26T02:01:09.345Z,17.25
2019-05-26T02:02:07.923Z,17.22
2019-05-26T02:03:06.701Z,17.22
2019-05-26T02:04:05.389Z,17.19
2019-05-26T02:05:04.051Z,17.18
2019-05-26T02:07:44.048Z,17.11
2019-05-26T02:08:42.739Z,17.21
2019-05-26T02:09:41.437Z,17.22
2019-05-26T02:10:40.031Z,17.25
2019-05-26T02:11:38.784Z,17.22
2019-05-26T02:12:37.418Z,17.21
2019-05-26T02:13:35.957Z,17.07
2019-05-26T02:14:34.562Z,17.06
2019-05-26T02:15:33.145Z,17.04
2019-05-26T02:16:31.740Z,17.14
2019-05-26T02:17:30.329Z,17.23
2019-05-26T02:18:28.971Z,17.11
2019-05-26T02:19:27.582Z,17.12
2019-05-26T02:20:26.288Z,16.97
2019-05-26T02:21:24.891Z,17.08
2019-05-26T02:22:23.513Z,17.03
2019-05-26T02:23:22.071Z,17.06
2019-05-26T02:24:20.885Z,17.01
2019-05-26T02:25:19.507Z,17.04
2019-05-26T02:26:18.107Z,17.04
2019-05-26T02:27:16.948Z,16.98
2019-05-26T02:28:15.515Z,16.86
2019-05-26T02:29:14.085Z,17.01
2019-05-26T02:30:12.746Z,16.96
2019-05-26T02:36:29.055Z,16.93
2019-05-26T02:37:27.582Z,16.91
2019-05-26T02:38:26.631Z,16.88
2019-05-26T02:39:24.794Z,16.96
2019-05-26T02:40:23.421Z,16.88
2019-05-26T02:41:22.011Z,16.93
2019-05-26T02:42:21.094Z,16.94
2019-05-26T02:43:19.663Z,16.89
2019-05-26T02:44:18.200Z,16.88
2019-05-26T02:45:16.799Z,16.85
2019-05-26T02:46:15.352Z,16.97
2019-05-26T02:47:13.903Z,17.01
2019-05-26T02:48:12.464Z,16.97
2019-05-26T02:49:11.041Z,17.07
2019-05-26T02:50:09.584Z,17.01
2019-05-26T02:51:08.148Z,16.98
2019-05-26T02:52:06.726Z,17
2019-05-26T02:53:05.371Z,17.04
2019-05-26T02:54:03.925Z,17.04
2019-05-26T02:55:02.867Z,17.04
2019-05-26T02:56:01.535Z,16.89
2019-05-26T02:57:00.097Z,17.04
2019-05-26T02:57:58.678Z,17.07
2019-05-26T02:58:57.223Z,17.11
2019-05-26T02:59:55.781Z,17.07
2019-05-26T03:00:54.444Z,16.86
2019-05-26T03:02:02.840Z,16.85
2019-05-26T03:02:51.655Z,17
2019-05-26T03:03:50.350Z,16.91
2019-05-26T03:04:48.933Z,16.94
2019-05-26T03:05:47.488Z,16.94
2019-05-26T03:06:46.089Z,16.7
2019-05-26T03:07:44.773Z,16.82
2019-05-26T03:08:43.319Z,16.81
2019-05-26T03:09:41.875Z,16.75
2019-05-26T03:10:40.558Z,16.79
2019-05-26T03:11:39.279Z,16.85
2019-05-26T03:12:37.906Z,16.85
2019-05-26T03:13:36.689Z,16.85
2019-05-26T03:14:35.355Z,16.85
2019-05-26T03:15:33.921Z,16.79
2019-05-26T03:16:32.474Z,16.89
2019-05-26T03:17:31.221Z,16.93
2019-05-26T03:18:29.795Z,16.83
2019-05-26T03:19:28.545Z,16.93
2019-05-26T03:20:27.238Z,16.96
2019-05-26T03:21:25.825Z,16.79
2019-05-26T03:22:24.402Z,16.79
2019-05-26T03:23:23.011Z,16.88
2019-05-26T03:24:21.592Z,16.91
2019-05-26T03:25:20.204Z,16.91
2019-05-26T03:26:18.806Z,16.78
2019-05-26T03:27:17.505Z,16.86
2019-05-26T03:28:16.082Z,16.86
2019-05-26T03:29:14.855Z,16.76
2019-05-26T03:30:13.537Z,16.79
2019-05-26T03:31:12.127Z,16.85
2019-05-26T03:32:10.723Z,16.73
2019-05-26T03:33:09.290Z,16.81
2019-05-26T03:34:07.920Z,16.83
2019-05-26T03:35:06.572Z,16.81
2019-05-26T03:36:05.280Z,16.6
2019-05-26T03:37:03.906Z,16.73
2019-05-26T03:38:02.571Z,16.89
2019-05-26T03:39:01.251Z,16.7
2019-05-26T03:39:59.780Z,16.75
2019-05-26T03:40:58.352Z,16.81
2019-05-26T03:41:57.044Z,16.73
2019-05-26T03:42:55.604Z,16.71
2019-05-26T03:43:54.177Z,16.86
2019-05-26T03:44:53.100Z,16.81
2019-05-26T03:45:51.725Z,16.81
2019-05-26T03:46:50.440Z,16.85
2019-05-26T03:47:48.902Z,16.88
2019-05-26T03:48:47.475Z,16.76
2019-05-26T03:49:46.046Z,16.85
2019-05-26T03:50:44.694Z,16.82
2019-05-26T03:51:43.332Z,16.83
2019-05-26T03:52:41.915Z,16.83
2019-05-26T03:53:40.683Z,16.76
2019-05-26T03:54:39.443Z,16.76
2019-05-26T03:55:38.010Z,16.75
2019-05-26T03:56:36.579Z,16.79
2019-05-26T03:57:35.137Z,16.76
2019-05-26T03:58:33.656Z,16.76
2019-05-26T03:59:32.229Z,16.94
2019-05-26T04:00:30.834Z,16.71
2019-05-26T04:01:29.449Z,16.79
2019-05-26T04:02:28.001Z,16.89
2019-05-26T04:03:26.554Z,16.85
2019-05-26T04:04:25.175Z,16.93
2019-05-26T04:05:23.720Z,16.86
2019-05-26T04:06:22.517Z,16.96
2019-05-26T04:07:21.153Z,16.98
2019-05-26T04:08:19.730Z,16.98
2019-05-26T04:09:18.323Z,17.03
2019-05-26T04:10:17.162Z,17.01
2019-05-26T04:11:15.690Z,16.94
2019-05-26T04:12:14.260Z,16.98
2019-05-26T04:13:13.089Z,17.01
2019-05-26T04:14:11.694Z,17.07
2019-05-26T04:15:10.270Z,17
2019-05-26T04:16:08.869Z,16.76
2019-05-26T04:17:07.419Z,16.97
2019-05-26T04:18:05.946Z,16.97
2019-05-26T04:19:04.665Z,16.93
2019-05-26T04:20:03.746Z,16.81
2019-05-26T04:21:02.328Z,16.88
2019-05-26T04:22:00.944Z,16.96
2019-05-26T04:22:59.498Z,17.03
2019-05-26T04:23:58.046Z,17.08
2019-05-26T04:24:56.665Z,17.14
2019-05-26T04:25:55.417Z,17.11
2019-05-26T04:26:54.333Z,17.46
2019-05-26T04:27:52.931Z,17.72
2019-05-26T04:28:51.524Z,17.71
2019-05-26T04:29:50.056Z,17.92
2019-05-26T04:30:48.634Z,18.3
2019-05-26T04:31:47.241Z,18.14
2019-05-26T04:32:45.819Z,18.1
2019-05-26T04:33:44.456Z,18.03
2019-05-26T04:34:43.207Z,17.72
2019-05-26T04:35:41.755Z,17.9
2019-05-26T04:36:40.478Z,18.02
2019-05-26T04:37:39.117Z,17.93
2019-05-26T04:38:37.674Z,18.12
2019-05-26T04:41:18.090Z,17.9
2019-05-26T04:42:16.807Z,17.89
2019-05-26T04:43:15.502Z,17.86
2019-05-26T04:44:13.952Z,17.79
2019-05-26T04:45:12.580Z,17.78
2019-05-26T04:46:11.196Z,17.84
2019-05-26T04:47:09.763Z,17.81
2019-05-26T04:48:08.397Z,18
2019-05-26T04:49:06.987Z,18.05
2019-05-26T04:50:05.694Z,18.05
2019-05-26T04:51:04.473Z,17.99
2019-05-26T04:52:03.123Z,18.18
2019-05-26T04:53:06.468Z,18.1
2019-05-26T04:54:00.215Z,17.93
2019-05-26T04:54:58.934Z,18.02
2019-05-26T04:55:57.400Z,18.07
2019-05-26T04:56:56.030Z,18.15
2019-05-26T04:57:54.752Z,18.11
2019-05-26T04:58:53.384Z,18.29
2019-05-26T04:59:51.985Z,18.52
2019-05-26T05:00:50.718Z,18.62
2019-05-26T05:09:48.635Z,18.87
2019-05-26T05:10:47.250Z,18.54
2019-05-26T05:11:45.789Z,18.54
2019-05-26T05:12:44.354Z,18.55
2019-05-26T05:13:43.165Z,18.76
2019-05-26T05:14:41.816Z,18.75
2019-05-26T05:15:40.413Z,18.62
2019-05-26T05:16:38.949Z,18.54
2019-05-26T05:17:37.522Z,18.42
2019-05-26T05:18:36.112Z,18.48
2019-05-26T05:19:34.819Z,18.42
2019-05-26T05:20:33.487Z,18.36
2019-05-26T05:21:32.058Z,18.47
2019-05-26T05:22:30.806Z,18.52
2019-05-26T05:23:29.494Z,18.29
2019-05-26T05:24:28.086Z,18.33
2019-05-26T05:25:26.651Z,18.27
2019-05-26T05:26:25.271Z,18.3
2019-05-26T05:27:23.860Z,18.12
2019-05-26T05:28:22.523Z,18.14
2019-05-26T05:29:21.348Z,18.11
2019-05-26T05:30:19.948Z,18.11
2019-05-26T05:31:18.481Z,18.11
2019-05-26T05:32:17.174Z,18.12
2019-05-26T05:33:15.714Z,18.23
2019-05-26T05:34:14.292Z,18.26
2019-05-26T05:35:13.032Z,18.33
2019-05-26T05:36:11.527Z,18.29
2019-05-26T05:37:10.111Z,18.32
2019-05-26T05:38:08.759Z,18.29
2019-05-26T05:39:07.456Z,18.15
2019-05-26T05:40:06.029Z,18.21
2019-05-26T05:41:04.716Z,18.32
2019-05-26T05:42:03.313Z,18.17
2019-05-26T05:43:01.905Z,18.05
2019-05-26T05:44:00.464Z,18.18
2019-05-26T05:44:59.612Z,18.21
2019-05-26T05:45:58.203Z,18.3
2019-05-26T05:46:56.814Z,18.27
2019-05-26T05:47:55.381Z,18.58
2019-05-26T05:48:53.960Z,18.78
2019-05-26T05:49:52.500Z,18.95
2019-05-26T05:50:51.284Z,19.18
2019-05-26T05:51:49.836Z,19.41
2019-05-26T05:52:48.432Z,19.73
2019-05-26T05:53:47.293Z,19.86
2019-05-26T05:54:45.875Z,20.18
2019-05-26T05:55:44.441Z,20.41
2019-05-26T05:56:43.047Z,20.36
2019-05-26T05:57:41.728Z,20.14
2019-05-26T05:58:40.198Z,20.32
2019-05-26T05:59:38.915Z,20.48
2019-05-26T06:00:37.607Z,20.58
2019-05-26T06:01:36.141Z,20.54
2019-05-26T06:02:34.909Z,20.42
2019-05-26T06:03:33.555Z,20.54
2019-05-26T06:04:32.102Z,20.72
2019-05-26T06:05:30.684Z,20.98
2019-05-26T06:06:29.275Z,20.88
2019-05-26T06:07:27.823Z,21.14
2019-05-26T06:08:26.552Z,21.32
2019-05-26T06:09:25.426Z,21.46
2019-05-26T06:10:24.016Z,21.44
2019-05-26T06:11:22.945Z,21.19
2019-05-26T06:12:21.540Z,21.38
2019-05-26T06:13:20.114Z,21.61
2019-05-26T06:14:18.870Z,21.35
2019-05-26T06:15:17.771Z,21.58
2019-05-26T06:16:17.013Z,21.64
2019-05-26T06:17:15.604Z,21.52
2019-05-26T06:18:14.218Z,21.5
2019-05-26T06:19:12.807Z,21.56
2019-05-26T06:20:11.428Z,21.59
2019-05-26T06:21:10.088Z,21.27
2019-05-26T06:22:08.766Z,21.29
2019-05-26T06:23:07.438Z,21.58
2019-05-26T06:24:06.017Z,21.49
2019-05-26T06:25:04.800Z,21.71
2019-05-26T06:26:03.441Z,21.46
2019-05-26T06:27:02.232Z,21.65
2019-05-26T06:28:01.135Z,21.64
2019-05-26T06:28:59.650Z,21.77
2019-05-26T06:29:59.273Z,21.75
2019-05-26T06:30:56.994Z,21.91
2019-05-26T06:31:56.124Z,21.72
2019-05-26T06:32:54.302Z,21.8
2019-05-26T06:33:52.952Z,21.67
2019-05-26T06:34:51.661Z,21.62
2019-05-26T06:35:50.250Z,21.77
2019-05-26T06:36:48.963Z,21.86
2019-05-26T06:37:47.589Z,21.69
2019-05-26T06:43:12.005Z,22
2019-05-26T07:08:59.822Z,22.97
2019-05-26T07:09:58.449Z,22.97
2019-05-26T07:10:57.076Z,23.07
2019-05-26T07:11:59.797Z,23.16
2019-05-26T07:12:54.270Z,23.23
2019-05-26T07:13:52.846Z,23.2
2019-05-26T07:14:51.432Z,23.07
2019-05-26T07:15:50.011Z,23.19
2019-05-26T07:16:49.140Z,23.23
2019-05-26T07:17:47.715Z,23.27
2019-05-26T07:18:46.360Z,23.27
2019-05-26T07:19:44.969Z,23.38
2019-05-26T07:20:43.493Z,23.27
2019-05-26T07:21:42.039Z,23.15
2019-05-26T07:22:40.632Z,23.35
2019-05-26T07:23:39.312Z,23.4
2019-05-26T07:24:37.979Z,23.39
2019-05-26T07:25:37.024Z,23.54
2019-05-26T07:26:35.592Z,23.73
2019-05-26T07:27:34.137Z,23.69
2019-05-26T07:28:32.747Z,23.48
2019-05-26T07:29:31.471Z,23.58
2019-05-26T07:30:30.046Z,23.53
2019-05-26T07:31:28.747Z,23.63
2019-05-26T07:32:27.414Z,23.53
2019-05-26T07:33:25.971Z,23.48
2019-05-26T07:34:24.639Z,23.42
2019-05-26T07:35:23.253Z,23.42
2019-05-26T07:36:21.780Z,23.22
2019-05-26T07:37:20.420Z,23.25
2019-05-26T07:38:19.122Z,23.27
2019-05-26T07:39:17.828Z,23.17
2019-05-26T07:40:16.616Z,23.38
2019-05-26T07:41:15.253Z,23.43
2019-05-26T07:42:13.868Z,23.7
2019-05-26T07:43:12.457Z,23.58
2019-05-26T07:44:11.159Z,23.1
2019-05-26T07:45:09.811Z,23.02
2019-05-26T07:46:08.517Z,23.01
2019-05-26T07:47:07.214Z,22.86
2019-05-26T07:48:05.766Z,22.65
2019-05-26T07:49:04.314Z,22.79
2019-05-26T07:50:02.937Z,22.94
2019-05-26T07:51:01.517Z,22.98
2019-05-26T07:52:00.121Z,23.15
2019-05-26T07:52:58.835Z,23.1
2019-05-26T07:53:57.574Z,23.12
2019-05-26T07:54:56.636Z,23.12
2019-05-26T07:55:55.347Z,23.09
2019-05-26T07:56:53.855Z,23.15
2019-05-26T07:57:52.440Z,22.95
2019-05-26T07:58:51.337Z,22.8
2019-05-26T07:59:50.001Z,23
2019-05-26T08:00:48.585Z,23.12
2019-05-26T08:01:47.168Z,23.23
2019-05-26T08:02:45.734Z,23.27
2019-05-26T08:03:44.435Z,23.31
2019-05-26T08:04:43.326Z,23.39
2019-05-26T08:05:41.867Z,23.27
2019-05-26T08:06:40.418Z,23.31
2019-05-26T08:07:39.080Z,23.32
2019-05-26T08:08:37.701Z,23.39
2019-05-26T08:09:36.267Z,23.31
2019-05-26T08:10:34.994Z,23.25
2019-05-26T08:11:33.660Z,23.12
2019-05-26T08:12:32.415Z,23
2019-05-26T08:13:31.035Z,23.12
2019-05-26T08:14:29.731Z,22.83
2019-05-26T08:15:28.300Z,22.97
2019-05-26T08:16:26.872Z,23.09
2019-05-26T08:17:25.426Z,23.13
2019-05-26T08:18:24.033Z,23.09
2019-05-26T08:19:22.749Z,23.05
2019-05-26T08:20:21.508Z,23.1
2019-05-26T08:21:20.080Z,23.27
2019-05-26T08:22:18.775Z,23.31
2019-05-26T08:23:17.362Z,23.27
2019-05-26T08:24:15.922Z,23.38
2019-05-26T08:25:14.451Z,23.25
2019-05-26T08:26:13.023Z,23.32
2019-05-26T08:27:11.605Z,23.23
2019-05-26T08:28:10.194Z,23.15
2019-05-26T08:29:08.874Z,23.43
2019-05-26T08:30:07.487Z,23.38
2019-05-26T08:31:06.073Z,23.22
2019-05-26T08:32:04.812Z,23.12
2019-05-26T08:33:03.479Z,22.98
2019-05-26T08:34:02.043Z,22.98
2019-05-26T08:35:00.673Z,23.01
2019-05-26T08:35:59.384Z,23.05
2019-05-26T08:36:57.948Z,23.13
2019-05-26T08:37:56.535Z,23.1
2019-05-26T08:38:55.311Z,22.95
2019-05-26T08:39:53.874Z,23.12
2019-05-26T08:40:52.419Z,23.22
2019-05-26T08:41:51.154Z,23.32
2019-05-26T08:42:49.743Z,23.4
2019-05-26T08:43:48.312Z,23.23
2019-05-26T08:44:47.010Z,23.35
2019-05-26T08:45:45.719Z,23.38
2019-05-26T08:46:44.304Z,23.48
2019-05-26T08:47:43.086Z,23.43
2019-05-26T08:48:41.779Z,23.4
2019-05-26T08:49:40.392Z,23.57
2019-05-26T08:50:39.216Z,23.4
2019-05-26T08:51:37.845Z,23.38
2019-05-26T08:52:36.598Z,23.48
2019-05-26T08:53:35.309Z,23.4
2019-05-26T08:54:33.891Z,23.38
2019-05-26T08:55:32.444Z,23.25
2019-05-26T08:56:31.028Z,23.35
2019-05-26T08:57:29.752Z,23.36
2019-05-26T08:58:29.374Z,23.4
2019-05-26T08:59:27.252Z,23.46
2019-05-26T09:00:27.825Z,23.43
2019-05-26T09:01:26.436Z,23.27
2019-05-26T09:02:25.015Z,23.23
2019-05-26T09:03:24.502Z,23.23
2019-05-26T09:04:23.066Z,23.17
2019-05-26T09:05:21.647Z,23.1
2019-05-26T09:06:20.274Z,23.13
2019-05-26T09:07:18.908Z,23.09
2019-05-26T09:08:17.604Z,23.22
2019-05-26T09:09:16.251Z,23.13
2019-05-26T09:10:15.450Z,23.22
2019-05-26T09:11:13.975Z,23.35
2019-05-26T09:12:12.819Z,23.4
2019-05-26T09:13:11.681Z,23.35
2019-05-26T09:14:10.183Z,23.38
2019-05-26T09:15:08.799Z,23.33
2019-05-26T09:16:07.569Z,23.35
2019-05-26T09:18:47.815Z,23.32
2019-05-26T09:19:46.372Z,23.43
2019-05-26T09:20:45.047Z,23.39
2019-05-26T09:21:43.703Z,23.4
2019-05-26T09:22:42.256Z,23.43
2019-05-26T09:23:40.983Z,23.43
2019-05-26T09:28:13.442Z,23.35
2019-05-26T09:29:12.091Z,23.42
2019-05-26T09:30:10.889Z,23.4
2019-05-26T09:47:47.137Z,23.69
2019-05-26T09:48:45.701Z,23.68
2019-05-26T09:49:44.441Z,23.58
2019-05-26T09:50:43.379Z,23.7
2019-05-26T09:51:42.035Z,23.75
2019-05-26T09:52:40.835Z,23.78
2019-05-26T09:53:39.614Z,23.87
2019-05-26T09:54:38.217Z,23.84
2019-05-26T09:55:36.910Z,23.84
2019-05-26T09:56:35.667Z,23.87
2019-05-26T09:57:34.280Z,23.75
2019-05-26T09:58:33.541Z,23.73
2019-05-26T09:59:31.644Z,23.54
2019-05-26T10:00:30.256Z,23.72
2019-05-26T10:01:29.101Z,23.75
2019-05-26T10:02:27.699Z,23.9
2019-05-26T10:03:26.476Z,23.95
2019-05-26T10:04:25.149Z,24.15
2019-05-26T10:05:23.828Z,24.1
2019-05-26T10:06:22.505Z,23.84
2019-05-26T10:07:21.257Z,24.08
2019-05-26T10:08:19.777Z,24.15
2019-05-26T10:09:18.377Z,24.28
2019-05-26T10:10:17.037Z,24.34
2019-05-26T10:11:15.586Z,24.28
2019-05-26T10:12:14.196Z,24.31
2019-05-26T10:13:12.845Z,24.24
2019-05-26T10:14:11.617Z,24.28
2019-05-26T10:15:10.183Z,24.25
2019-05-26T10:16:08.928Z,24.22
2019-05-26T10:17:07.490Z,24.3
2019-05-26T10:18:06.067Z,24.35
2019-05-26T10:19:04.755Z,24.39
2019-05-26T10:20:03.573Z,24.28
2019-05-26T10:21:02.255Z,24.22
2019-05-26T10:22:01.001Z,24.28
2019-05-26T10:22:59.579Z,24.24
2019-05-26T10:23:58.130Z,24.31
2019-05-26T10:24:56.714Z,24.34
2019-05-26T10:25:55.510Z,24.22
2019-05-26T10:26:54.144Z,24.2
2019-05-26T10:27:52.853Z,24.13
2019-05-26T10:28:51.665Z,24.15
2019-05-26T10:29:50.414Z,24.2
2019-05-26T10:30:49.147Z,24.15
2019-05-26T10:31:47.973Z,24.16
2019-05-26T10:32:46.368Z,24.12
2019-05-26T10:33:45.001Z,24.16
2019-05-26T10:34:43.621Z,24.3
2019-05-26T10:35:42.185Z,24.31
2019-05-26T10:36:40.739Z,24.27
2019-05-26T10:37:39.352Z,24.37
2019-05-26T10:38:37.940Z,24.37
2019-05-26T10:39:36.625Z,24.32
2019-05-26T10:40:35.572Z,24.42
2019-05-26T10:41:34.150Z,24.37
2019-05-26T10:42:32.754Z,24.39
2019-05-26T10:43:44.456Z,24.3
2019-05-26T10:44:30.065Z,24.31
2019-05-26T10:45:28.758Z,24.22
2019-05-26T10:46:27.491Z,24.27
2019-05-26T10:47:26.070Z,24.25
2019-05-26T10:48:24.656Z,24.3
2019-05-26T10:49:23.286Z,24.16
2019-05-26T10:50:21.870Z,24.12
2019-05-26T10:51:21.333Z,24.18
2019-05-26T10:52:19.973Z,24.25
2019-05-26T10:53:18.580Z,24.28
2019-05-26T10:54:17.446Z,24.3
2019-05-26T10:55:16.232Z,24.31
2019-05-26T10:56:14.873Z,24.3
2019-05-26T10:57:13.456Z,24.31
2019-05-26T10:58:12.105Z,24.5
2019-05-26T10:59:10.941Z,24.47
2019-05-26T11:00:09.651Z,24.46
2019-05-26T11:01:08.221Z,24.53
2019-05-26T11:02:06.910Z,24.49
2019-05-26T11:03:05.686Z,24.65
2019-05-26T11:04:04.295Z,24.64
2019-05-26T11:05:03.096Z,24.57
2019-05-26T11:06:01.770Z,24.55
2019-05-26T11:07:00.349Z,24.49
2019-05-26T11:07:59.051Z,24.55
2019-05-26T11:08:57.789Z,24.43
2019-05-26T11:09:56.381Z,24.42
2019-05-26T11:10:55.112Z,24.37
2019-05-26T11:11:53.932Z,24.37
2019-05-26T11:12:52.569Z,24.4
2019-05-26T11:14:02.116Z,24.4
2019-05-26T11:14:49.753Z,24.45
2019-05-26T11:15:48.319Z,24.52
2019-05-26T11:16:46.906Z,24.52
2019-05-26T11:19:27.174Z,24.61
2019-05-26T11:20:25.854Z,24.65
2019-05-26T11:21:24.560Z,24.55
2019-05-26T11:22:23.271Z,24.58
2019-05-26T11:23:21.798Z,24.61
2019-05-26T11:24:20.415Z,24.69
2019-05-26T11:26:43.525Z,24.61
2019-05-26T11:27:42.126Z,24.77
2019-05-26T11:28:40.661Z,24.68
2019-05-26T11:29:39.335Z,24.69
2019-05-26T11:30:37.885Z,24.8
2019-05-26T11:31:36.596Z,24.84
2019-05-26T11:32:35.518Z,24.87
2019-05-26T11:33:34.153Z,24.87
2019-05-26T11:34:32.744Z,24.85
2019-05-26T11:35:31.399Z,24.88
2019-05-26T11:36:29.913Z,24.98
2019-05-26T11:37:28.494Z,25.05
2019-05-26T11:38:27.037Z,25.13
2019-05-26T11:39:25.689Z,25.08
2019-05-26T11:40:24.288Z,24.91
2019-05-26T11:41:23.311Z,24.87
2019-05-26T11:42:21.994Z,25.08
2019-05-26T11:43:20.549Z,25.05
2019-05-26T11:44:19.136Z,25.06
2019-05-26T11:45:17.747Z,25
2019-05-26T11:46:16.989Z,24.98
2019-05-26T11:47:15.059Z,25.02
2019-05-26T11:48:13.655Z,25
2019-05-26T11:49:12.265Z,24.99
2019-05-26T11:50:10.905Z,25.03
2019-05-26T11:51:09.633Z,25.02
2019-05-26T11:53:50.038Z,25.3
2019-05-26T11:54:48.714Z,25.13
2019-05-26T11:55:47.380Z,25.03
2019-05-26T11:56:45.883Z,24.98
2019-05-26T11:57:44.507Z,24.99
2019-05-26T11:58:43.134Z,25.06
2019-05-26T11:59:41.679Z,25
2019-05-26T12:00:40.322Z,25.03
2019-05-26T12:01:39.039Z,24.9
2019-05-26T12:02:37.712Z,24.9
2019-05-26T12:03:36.310Z,25
2019-05-26T12:04:35.060Z,25.08
2019-05-26T12:05:33.757Z,25.13
2019-05-26T12:06:32.335Z,25.2
2019-05-26T12:07:30.930Z,25.15
2019-05-26T12:08:29.453Z,25.21
2019-05-26T12:09:28.033Z,25.2
2019-05-26T12:11:50.718Z,25.1
2019-05-26T12:12:49.374Z,25.02
2019-05-26T12:13:47.962Z,25.1
2019-05-26T12:14:46.524Z,25.09
2019-05-26T12:15:45.245Z,25.06
2019-05-26T12:16:43.844Z,25
2019-05-26T12:17:42.398Z,24.99
2019-05-26T12:18:41.127Z,24.99
2019-05-26T12:19:39.816Z,25.08
2019-05-26T12:20:38.383Z,25.1
2019-05-26T12:21:37.087Z,25.17
2019-05-26T12:24:17.616Z,25.23
2019-05-26T12:25:16.563Z,25.18
2019-05-26T12:26:15.356Z,25.28
2019-05-26T12:27:13.971Z,25.36
2019-05-26T12:28:12.700Z,25.23
2019-05-26T12:29:11.433Z,25.17
2019-05-26T12:52:47.664Z,25.2
2019-05-26T12:55:27.957Z,25.14
2019-05-26T12:56:26.687Z,25.36
2019-05-26T12:57:26.403Z,25.18
2019-05-26T12:58:25.232Z,25.33
2019-05-26T12:59:23.830Z,25.18
2019-05-26T13:00:22.429Z,25.15
2019-05-26T13:01:21.023Z,25.05
2019-05-26T13:02:20.070Z,24.96
2019-05-26T13:03:18.778Z,24.91
2019-05-26T13:05:59.360Z,24.98
2019-05-26T13:08:00.036Z,24.93
2019-05-26T13:10:40.647Z,24.9
2019-05-26T13:11:39.332Z,24.9
2019-05-26T13:14:19.631Z,24.87
2019-05-26T13:15:18.192Z,24.78
2019-05-26T13:17:58.569Z,24.64
2019-05-26T13:18:57.330Z,24.65
2019-05-26T13:19:55.905Z,24.47
2019-05-26T13:20:54.497Z,24.58
2019-05-26T13:21:53.160Z,24.52
2019-05-26T13:22:51.808Z,24.62
2019-05-26T13:23:50.601Z,24.69
2019-05-26T13:24:49.309Z,24.65
2019-05-26T13:25:47.887Z,24.64
2019-05-26T13:26:46.685Z,24.67
2019-05-26T13:27:45.438Z,24.83
2019-05-26T13:28:44.016Z,24.78
2019-05-26T13:29:42.734Z,24.77
2019-05-26T13:30:41.385Z,24.64
2019-05-26T13:42:21.409Z,24.95
2019-05-26T13:43:20.251Z,24.88
2019-05-26T13:44:18.905Z,24.67
2019-05-26T13:46:59.607Z,24.68
2019-05-26T13:47:58.358Z,24.68
2019-05-26T13:48:57.005Z,24.67
2019-05-26T14:16:04.494Z,24.99
2019-05-26T14:19:43.287Z,24.93
2019-05-26T14:20:42.074Z,24.91
2019-05-26T14:21:40.725Z,24.71
2019-05-26T14:22:39.542Z,24.64
2019-05-26T14:23:38.092Z,24.73
2019-05-26T14:24:36.725Z,24.85
2019-05-26T14:29:17.801Z,24.71
2019-05-26T14:30:16.381Z,24.62
2019-05-26T14:31:15.182Z,24.68
2019-05-26T14:32:13.907Z,24.65
2019-05-26T14:35:35.535Z,24.58
2019-05-26T14:36:34.135Z,24.6
2019-05-26T14:37:32.684Z,24.57
2019-05-26T14:38:42.535Z,24.5
2019-05-26T14:39:30.117Z,24.46
2019-05-26T14:40:28.845Z,24.5
2019-05-26T14:42:45.356Z,24.49
2019-05-26T14:44:54.193Z,24.52
2019-05-26T14:47:28.172Z,24.39
2019-05-26T14:48:27.017Z,24.45
2019-05-26T14:49:25.605Z,24.46
2019-05-26T14:50:24.161Z,24.4
2019-05-26T14:51:22.748Z,24.39
2019-05-26T14:53:05.202Z,24.39
2019-05-26T14:54:03.900Z,24.39
2019-05-26T14:55:02.427Z,24.4
2019-05-26T14:56:01.157Z,24.47
2019-05-26T14:56:59.997Z,24.45
2019-05-26T14:58:14.172Z,24.4
2019-05-26T14:58:57.336Z,24.43
2019-05-26T14:59:55.935Z,24.43
2019-05-26T15:01:37.586Z,24.42
2019-05-26T15:02:36.166Z,24.42
2019-05-26T15:03:34.744Z,24.42
2019-05-26T15:04:33.899Z,24.34
2019-05-26T15:05:32.686Z,24.45
2019-05-26T15:06:31.593Z,24.47
2019-05-26T15:07:30.096Z,24.46
2019-05-26T15:08:28.712Z,24.49
2019-05-26T15:09:27.453Z,24.47
2019-05-26T15:10:26.023Z,24.43
2019-05-26T15:11:24.744Z,24.49
2019-05-26T15:12:23.827Z,24.47
2019-05-26T15:13:22.538Z,24.49
2019-05-26T15:14:21.443Z,24.47
2019-05-26T15:15:20.243Z,24.37
2019-05-26T15:16:18.852Z,24.46
2019-05-26T15:17:17.682Z,24.57
2019-05-26T15:18:16.364Z,24.49
2019-05-26T15:19:14.965Z,24.6
2019-05-26T15:20:13.742Z,24.5
2019-05-26T15:21:12.294Z,24.57